Terminal Aerodrome Forecast
Issued by NWS

Home | Current Version | Previous Version | Text Only | Print | Product List | Glossary On
Versions: 1 2 3 4 5 6 7 8 9 10 11 12
019
FTUS45 KRIW 052322
TAFCOD
TAF
KCOD 052322Z 0600/0624 16010KT P6SM SCT090 BKN150
     FM060200 22008KT P6SM VCSH SCT060 BKN080
     FM061100 36008KT P6SM VCSH SCT025 BKN060
     FM061800 05012G17KT P6SM VCTS SCT020CB BKN050
      AMD LTD TO CLD VIS AND WIND=

USA.gov is the U.S. government's official web portal to all federal, state and local government web resources and services.